createdAt,value
2023-01-03T00:02:23.891Z,9.80
2023-01-03T00:04:50.674Z,9.80
2023-01-03T00:07:33.966Z,9.80
2023-01-03T00:10:09.965Z,9.70
2023-01-03T00:12:37.326Z,9.70
2023-01-03T00:15:04.648Z,9.80
2023-01-03T00:17:31.499Z,9.70
2023-01-03T00:19:58.243Z,9.80
2023-01-03T00:22:27.273Z,9.80
2023-01-03T00:24:53.922Z,9.80
2023-01-03T00:27:20.692Z,9.80
2023-01-03T00:29:47.295Z,9.80
2023-01-03T00:32:13.964Z,9.80
2023-01-03T00:34:42.876Z,9.70
2023-01-03T00:37:09.455Z,9.70
2023-01-03T00:39:37.435Z,9.70
2023-01-03T00:42:04.034Z,9.70
2023-01-03T00:44:31.337Z,9.70
2023-01-03T00:46:58.187Z,9.60
2023-01-03T00:49:24.892Z,9.60
2023-01-03T00:51:53.762Z,9.60
2023-01-03T00:54:21.310Z,9.60
2023-01-03T00:56:49.304Z,9.60
2023-01-03T00:59:18.077Z,9.60
2023-01-03T01:01:48.337Z,9.60
2023-01-03T01:04:28.469Z,9.60
2023-01-03T01:07:02.006Z,9.60
2023-01-03T01:09:33.286Z,9.60
2023-01-03T01:12:00.153Z,9.60
2023-01-03T01:14:28.612Z,9.60
2023-01-03T01:16:56.494Z,9.60
2023-01-03T01:19:35.582Z,9.70
2023-01-03T01:22:02.214Z,9.70
2023-01-03T01:24:28.819Z,9.70
2023-01-03T01:26:55.423Z,9.70
2023-01-03T01:29:22.338Z,9.70
2023-01-03T01:31:49.206Z,9.80
2023-01-03T01:34:16.740Z,9.70
2023-01-03T01:36:44.336Z,9.70
2023-01-03T01:39:14.779Z,9.70
2023-01-03T01:42:00.953Z,9.70
2023-01-03T01:44:54.442Z,9.60
2023-01-03T01:47:39.876Z,9.60
2023-01-03T01:50:43.786Z,9.50
2023-01-03T01:53:27.084Z,9.50
2023-01-03T01:56:19.452Z,9.50
2023-01-03T01:58:50.223Z,9.60
2023-01-03T02:01:19.637Z,9.60
2023-01-03T02:03:56.400Z,9.60
2023-01-03T02:06:23.984Z,9.60
2023-01-03T02:08:50.599Z,9.60
2023-01-03T02:12:13.771Z,9.60
2023-01-03T02:15:17.413Z,9.60
2023-01-03T02:18:12.064Z,9.60
2023-01-03T02:21:08.728Z,9.60
2023-01-03T02:23:48.956Z,9.50
2023-01-03T02:26:48.417Z,9.60
2023-01-03T02:29:39.261Z,9.60
2023-01-03T02:32:47.892Z,9.60
2023-01-03T02:35:33.511Z,9.60
2023-01-03T02:38:29.079Z,9.60
2023-01-03T02:41:23.009Z,9.60
2023-01-03T02:44:01.329Z,9.60
2023-01-03T02:46:33.621Z,9.60
2023-01-03T02:49:20.235Z,9.70
2023-01-03T02:51:53.455Z,9.70
2023-01-03T02:54:42.012Z,9.70
2023-01-03T02:57:16.257Z,9.70
2023-01-03T02:59:51.124Z,9.70
2023-01-03T03:02:19.576Z,9.60
2023-01-03T03:04:50.657Z,9.60
2023-01-03T03:07:22.105Z,9.50
2023-01-03T03:10:07.864Z,9.60
2023-01-03T03:12:55.955Z,9.60
2023-01-03T03:15:25.752Z,9.60
2023-01-03T03:17:57.572Z,9.60
2023-01-03T03:20:42.829Z,9.50
2023-01-03T03:23:32.566Z,9.50
2023-01-03T03:26:14.212Z,9.50
2023-01-03T03:28:44.638Z,9.40
2023-01-03T03:31:30.787Z,9.40
2023-01-03T03:34:05.585Z,9.40
2023-01-03T03:36:47.913Z,9.40
2023-01-03T03:39:34.083Z,9.40
2023-01-03T03:42:33.727Z,9.40
2023-01-03T03:45:09.084Z,9.40
2023-01-03T03:47:54.278Z,9.40
2023-01-03T03:50:45.041Z,9.50
2023-01-03T03:53:14.277Z,9.50
2023-01-03T03:55:51.577Z,9.40
2023-01-03T03:58:23.121Z,9.40
2023-01-03T04:00:52.047Z,9.50
2023-01-03T04:03:20.071Z,9.50
2023-01-03T04:06:00.097Z,9.50
2023-01-03T04:08:26.799Z,9.50
2023-01-03T04:11:05.346Z,9.50
2023-01-03T04:13:33.344Z,9.50
2023-01-03T04:16:00.293Z,9.50
2023-01-03T04:18:27.025Z,9.50
2023-01-03T04:20:53.826Z,9.60
2023-01-03T04:23:20.441Z,9.50
2023-01-03T04:25:49.062Z,9.60
2023-01-03T04:28:16.370Z,9.50
2023-01-03T04:30:43.472Z,9.50
2023-01-03T04:33:10.272Z,9.50
2023-01-03T04:35:37.256Z,9.50
2023-01-03T04:38:04.835Z,9.50
2023-01-03T04:40:33.465Z,9.50
2023-01-03T04:43:18.515Z,9.50
2023-01-03T04:45:45.350Z,9.50
2023-01-03T04:48:12.153Z,9.40
2023-01-03T04:50:38.732Z,9.40
2023-01-03T04:53:05.550Z,9.50
2023-01-03T04:55:32.458Z,9.50
2023-01-03T04:57:59.038Z,9.50
2023-01-03T05:00:25.632Z,9.50
2023-01-03T05:02:52.398Z,9.50
2023-01-03T05:05:18.972Z,9.50
2023-01-03T05:07:45.544Z,9.50
2023-01-03T05:10:12.144Z,9.40
2023-01-03T05:12:38.726Z,9.40
2023-01-03T05:15:05.761Z,9.50
2023-01-03T05:17:32.366Z,9.50
2023-01-03T05:20:17.383Z,9.50
2023-01-03T05:23:02.856Z,9.40
2023-01-03T05:25:47.978Z,9.30
2023-01-03T05:28:17.466Z,9.30
2023-01-03T05:30:44.729Z,9.30
2023-01-03T05:33:11.313Z,9.30
2023-01-03T05:35:38.255Z,9.20
2023-01-03T05:38:05.211Z,9.20
2023-01-03T05:40:36.180Z,9.20
2023-01-03T05:43:05.931Z,9.20
2023-01-03T05:45:35.070Z,9.20
2023-01-03T05:48:01.659Z,9.30
2023-01-03T05:50:28.274Z,9.40
2023-01-03T05:52:55.047Z,9.40
2023-01-03T05:55:21.700Z,9.50
2023-01-03T05:57:48.265Z,9.50
2023-01-03T06:00:15.908Z,9.50
2023-01-03T06:02:42.971Z,9.60
2023-01-03T06:05:10.540Z,9.60
2023-01-03T06:07:37.558Z,9.60
2023-01-03T06:10:06.097Z,9.60
2023-01-03T06:12:32.799Z,9.60
2023-01-03T06:14:59.350Z,9.60
2023-01-03T06:17:44.461Z,9.50
2023-01-03T06:20:11.112Z,9.50
2023-01-03T06:22:37.703Z,9.60
2023-01-03T06:25:04.778Z,9.60
2023-01-03T06:27:31.449Z,9.60
2023-01-03T06:29:58.159Z,9.50
2023-01-03T06:32:24.964Z,9.40
2023-01-03T06:34:51.632Z,9.40
2023-01-03T06:37:18.427Z,9.40
2023-01-03T06:39:45.657Z,9.40
2023-01-03T06:42:31.433Z,9.40
2023-01-03T06:45:16.887Z,9.40
2023-01-03T06:48:02.460Z,9.40
2023-01-03T06:50:47.864Z,9.40
2023-01-03T06:53:16.797Z,9.40
2023-01-03T06:55:48.796Z,9.40
2023-01-03T06:58:19.579Z,9.40
2023-01-03T07:00:46.833Z,9.40
2023-01-03T07:03:13.676Z,9.30
2023-01-03T07:05:40.356Z,9.30
2023-01-03T07:08:06.968Z,9.30
2023-01-03T07:10:34.793Z,9.30
2023-01-03T07:13:20.313Z,9.30
2023-01-03T07:15:47.135Z,9.30
2023-01-03T07:18:13.991Z,9.30
2023-01-03T07:20:42.292Z,9.30
2023-01-03T07:23:09.392Z,9.30
2023-01-03T07:25:41.038Z,9.30
2023-01-03T07:28:11.156Z,9.40
2023-01-03T07:30:43.505Z,9.30
2023-01-03T07:33:11.806Z,9.30
2023-01-03T07:35:38.955Z,9.30
2023-01-03T07:38:06.127Z,9.30
2023-01-03T07:40:33.025Z,9.30
2023-01-03T07:43:18.455Z,9.40
2023-01-03T07:45:46.149Z,9.30
2023-01-03T07:48:13.168Z,9.30
2023-01-03T07:50:40.209Z,9.30
2023-01-03T07:53:08.412Z,9.30
2023-01-03T07:55:36.860Z,9.30
2023-01-03T07:58:03.699Z,9.30
2023-01-03T08:00:30.302Z,9.40
2023-01-03T08:02:57.114Z,9.30
2023-01-03T08:05:24.525Z,9.30
2023-01-03T08:07:52.629Z,9.20
2023-01-03T08:10:39.029Z,9.20
2023-01-03T08:13:25.037Z,9.20
2023-01-03T08:15:55.211Z,9.20
2023-01-03T08:18:24.440Z,9.20
2023-01-03T08:20:53.651Z,9.20
2023-01-03T08:23:20.319Z,9.20
2023-01-03T08:25:47.034Z,9.20
2023-01-03T08:28:13.634Z,9.20
2023-01-03T08:30:47.478Z,9.20
2023-01-03T08:33:15.948Z,9.20
2023-01-03T08:35:46.683Z,9.20
2023-01-03T08:38:17.892Z,9.30
2023-01-03T08:40:46.451Z,9.30
2023-01-03T08:43:15.351Z,9.30
2023-01-03T08:45:42.101Z,9.30
2023-01-03T08:48:10.294Z,9.30
2023-01-03T08:50:37.869Z,9.30
2023-01-03T08:53:05.752Z,9.30
2023-01-03T08:55:33.117Z,9.30
2023-01-03T08:58:00.247Z,9.30
2023-01-03T09:00:28.177Z,9.30
2023-01-03T09:03:00.068Z,9.40
2023-01-03T09:05:27.915Z,9.40
2023-01-03T09:07:55.366Z,9.40
2023-01-03T09:10:23.118Z,9.50
2023-01-03T09:12:50.425Z,9.50
2023-01-03T09:15:17.022Z,9.50
2023-01-03T09:17:47.218Z,9.50
2023-01-03T09:20:15.842Z,9.50
2023-01-03T09:22:42.991Z,9.50
2023-01-03T09:25:10.519Z,9.60
2023-01-03T09:27:37.133Z,9.60
2023-01-03T09:30:04.383Z,9.60
2023-01-03T09:32:31.189Z,9.70
2023-01-03T09:34:57.781Z,9.60
2023-01-03T09:37:24.354Z,9.60
2023-01-03T09:39:50.916Z,9.50
2023-01-03T09:42:40.461Z,9.50
2023-01-03T09:45:12.051Z,9.40
2023-01-03T09:47:39.871Z,9.40
2023-01-03T09:50:56.664Z,9.50
2023-01-03T09:53:22.991Z,9.50
2023-01-03T09:56:12.445Z,9.50
2023-01-03T09:58:59.227Z,9.60
2023-01-03T10:02:05.399Z,9.60
2023-01-03T10:04:52.885Z,9.60
2023-01-03T10:07:37.500Z,9.60
2023-01-03T10:10:56.229Z,9.70
2023-01-03T10:13:44.139Z,9.70
2023-01-03T10:16:37.521Z,9.70
2023-01-03T10:19:25.642Z,9.70
2023-01-03T10:22:01.186Z,9.80
2023-01-03T10:24:32.938Z,9.80
2023-01-03T10:27:19.214Z,9.80
2023-01-03T10:29:47.232Z,9.80
2023-01-03T10:32:53.835Z,9.80
2023-01-03T10:35:42.764Z,9.90
2023-01-03T10:38:09.355Z,9.90
2023-01-03T10:40:58.278Z,9.90
2023-01-03T10:43:32.796Z,9.90
2023-01-03T10:46:15.695Z,9.90
2023-01-03T10:51:42.909Z,9.90
2023-01-03T10:54:17.694Z,9.90
2023-01-03T10:56:48.686Z,9.90
2023-01-03T10:59:17.814Z,10.00
2023-01-03T11:02:12.556Z,10.00
2023-01-03T11:04:39.329Z,10.00
2023-01-03T11:07:09.014Z,10.00
2023-01-03T11:09:51.595Z,10.00
2023-01-03T11:12:39.208Z,9.90
2023-01-03T11:15:39.091Z,10.00
2023-01-03T11:18:17.164Z,10.00
2023-01-03T11:20:59.736Z,9.90
2023-01-03T11:23:53.862Z,10.00
2023-01-03T11:26:26.846Z,10.00
2023-01-03T11:29:12.240Z,10.00
2023-01-03T11:32:10.558Z,10.00
2023-01-03T11:38:09.165Z,10.00
2023-01-03T11:41:06.845Z,10.00
2023-01-03T11:43:47.565Z,10.00
2023-01-03T11:46:23.167Z,10.00
2023-01-03T11:49:12.002Z,10.00
2023-01-03T11:52:09.300Z,9.90
2023-01-03T11:55:13.374Z,9.90
2023-01-03T11:57:59.614Z,9.90
2023-01-03T12:00:52.635Z,9.90
2023-01-03T12:03:31.052Z,9.90
2023-01-03T12:06:05.739Z,9.80
2023-01-03T12:08:46.947Z,9.80
2023-01-03T12:11:41.069Z,9.90
2023-01-03T12:14:22.977Z,9.90
2023-01-03T12:16:53.128Z,9.90
2023-01-03T12:19:35.326Z,9.90
2023-01-03T12:22:11.240Z,9.90
2023-01-03T12:25:05.980Z,10.00
2023-01-03T12:27:36.198Z,10.00
2023-01-03T12:30:27.866Z,10.00
2023-01-03T12:32:59.906Z,10.00
2023-01-03T12:35:37.259Z,10.00
2023-01-03T12:38:06.170Z,10.00
2023-01-03T12:40:43.527Z,10.00
2023-01-03T12:43:25.172Z,10.10
2023-01-03T12:46:15.091Z,10.10
2023-01-03T12:49:06.973Z,10.20
2023-01-03T12:51:35.526Z,10.20
2023-01-03T12:54:25.994Z,10.20
2023-01-03T12:57:31.562Z,10.30
2023-01-03T13:00:20.759Z,10.30
2023-01-03T13:02:52.894Z,10.20
2023-01-03T13:05:24.664Z,10.20
2023-01-03T13:08:06.508Z,10.20
2023-01-03T13:10:36.719Z,10.20
2023-01-03T13:13:05.068Z,10.20
2023-01-03T13:15:37.200Z,10.10
2023-01-03T13:18:23.254Z,10.20
2023-01-03T13:20:51.885Z,10.10
2023-01-03T13:23:37.042Z,10.10
2023-01-03T13:26:04.862Z,10.10
2023-01-03T13:28:38.833Z,10.10
2023-01-03T13:31:14.594Z,10.10
2023-01-03T13:33:55.804Z,10.10
2023-01-03T13:36:23.553Z,10.10
2023-01-03T13:38:50.839Z,10.10
2023-01-03T13:41:36.924Z,10.10
2023-01-03T13:44:20.152Z,10.10
2023-01-03T13:46:47.954Z,10.10
2023-01-03T13:49:27.562Z,10.10
2023-01-03T13:51:56.882Z,10.10
2023-01-03T13:54:26.882Z,10.10
2023-01-03T13:57:02.839Z,10.10
2023-01-03T13:59:50.380Z,10.10
2023-01-03T14:02:54.028Z,10.10
2023-01-03T14:05:37.705Z,10.10
2023-01-03T14:09:00.985Z,10.10
2023-01-03T14:11:50.014Z,10.10
2023-01-03T14:14:21.312Z,10.10
2023-01-03T14:16:54.111Z,10.00
2023-01-03T14:19:30.136Z,10.00
2023-01-03T14:22:26.527Z,10.00
2023-01-03T14:24:54.890Z,10.00
2023-01-03T14:27:35.182Z,10.00
2023-01-03T14:30:01.811Z,10.00
2023-01-03T14:32:34.650Z,10.00
2023-01-03T14:35:02.442Z,10.00
2023-01-03T14:37:30.203Z,10.00
2023-01-03T14:40:00.856Z,10.00
2023-01-03T14:42:28.223Z,10.00
2023-01-03T14:45:05.267Z,10.00
2023-01-03T14:47:40.128Z,10.00
2023-01-03T14:50:11.240Z,10.00
2023-01-03T14:52:43.867Z,10.00
2023-01-03T14:55:19.764Z,10.00
2023-01-03T14:57:48.353Z,10.00
2023-01-03T15:00:30.000Z,10.00
2023-01-03T15:03:01.093Z,9.90
2023-01-03T15:05:40.607Z,9.90
2023-01-03T15:08:29.701Z,10.00
2023-01-03T15:11:08.122Z,10.00
2023-01-03T15:13:38.420Z,10.00
2023-01-03T15:16:08.367Z,10.00
2023-01-03T15:18:39.614Z,10.00
2023-01-03T15:21:06.726Z,10.00
2023-01-03T15:23:45.431Z,10.00
2023-01-03T15:26:21.055Z,10.00
2023-01-03T15:28:53.819Z,10.00
2023-01-03T15:31:46.185Z,10.00
2023-01-03T15:34:19.645Z,10.00
2023-01-03T15:36:56.687Z,10.00
2023-01-03T15:39:25.936Z,10.00
2023-01-03T15:42:44.153Z,10.00
2023-01-03T15:45:19.269Z,10.00
2023-01-03T15:47:47.710Z,9.90
2023-01-03T15:50:18.555Z,9.90
2023-01-03T15:52:46.287Z,9.80
2023-01-03T15:55:14.413Z,9.70
2023-01-03T15:57:42.260Z,9.70
2023-01-03T16:00:15.512Z,9.60
2023-01-03T16:02:42.215Z,9.60
2023-01-03T16:05:17.970Z,9.60
2023-01-03T16:07:48.566Z,9.60
2023-01-03T16:10:15.266Z,9.60
2023-01-03T16:12:42.747Z,9.60
2023-01-03T16:15:18.769Z,9.60
2023-01-03T16:17:45.759Z,9.50
2023-01-03T16:20:17.752Z,9.50
2023-01-03T16:22:57.591Z,9.50
2023-01-03T16:25:27.449Z,9.60
2023-01-03T16:27:54.080Z,9.60
2023-01-03T16:30:20.989Z,9.60
2023-01-03T16:32:47.603Z,9.60
2023-01-03T16:35:16.815Z,9.60
2023-01-03T16:37:43.860Z,9.60
2023-01-03T16:40:20.796Z,9.60
2023-01-03T16:42:48.171Z,9.60
2023-01-03T16:45:16.126Z,9.60
2023-01-03T16:47:43.553Z,9.60
2023-01-03T16:50:17.367Z,9.70
2023-01-03T16:52:47.430Z,9.70
2023-01-03T16:55:32.741Z,9.70
2023-01-03T16:57:59.778Z,9.70
2023-01-03T17:00:31.773Z,9.60
2023-01-03T17:02:59.890Z,9.60
2023-01-03T17:05:29.217Z,9.60
2023-01-03T17:08:02.636Z,9.60
2023-01-03T17:10:36.026Z,9.70
2023-01-03T17:13:10.432Z,9.70
2023-01-03T17:15:40.388Z,9.70
2023-01-03T17:18:18.708Z,9.60
2023-01-03T17:20:45.417Z,9.60
2023-01-03T17:23:12.051Z,9.70
2023-01-03T17:25:40.477Z,9.70
2023-01-03T17:28:10.383Z,9.70
2023-01-03T17:30:38.026Z,9.70
2023-01-03T17:33:04.752Z,9.70
2023-01-03T17:35:38.728Z,9.80
2023-01-03T17:38:25.112Z,9.80
2023-01-03T17:40:52.804Z,9.80
2023-01-03T17:43:23.948Z,9.80
2023-01-03T17:46:17.570Z,9.90
2023-01-03T17:49:07.994Z,9.90
2023-01-03T17:51:34.844Z,9.90
2023-01-03T17:54:01.566Z,9.90
2023-01-03T17:56:29.574Z,9.80
2023-01-03T17:58:56.972Z,9.80
2023-01-03T18:01:23.738Z,9.70
2023-01-03T18:03:50.701Z,9.60
2023-01-03T18:06:23.984Z,9.60
2023-01-03T18:08:52.292Z,9.70
2023-01-03T18:11:26.739Z,9.60
2023-01-03T18:13:53.349Z,9.50
2023-01-03T18:16:22.080Z,9.50
2023-01-03T18:18:49.317Z,9.60
2023-01-03T18:21:22.927Z,9.50
2023-01-03T18:24:01.865Z,9.50
2023-01-03T18:26:33.462Z,9.40
2023-01-03T18:29:00.519Z,9.40
2023-01-03T18:31:27.215Z,9.40
2023-01-03T18:33:53.882Z,9.30
2023-01-03T18:36:29.256Z,9.30
2023-01-03T18:39:03.138Z,9.20
2023-01-03T18:41:32.465Z,9.30
2023-01-03T18:44:00.219Z,9.30
2023-01-03T18:46:28.318Z,9.20
2023-01-03T18:48:55.247Z,9.20
2023-01-03T18:51:26.788Z,9.10
2023-01-03T18:53:57.780Z,9.10
2023-01-03T18:56:37.816Z,9.10
2023-01-03T18:59:09.811Z,9.20
2023-01-03T19:01:36.573Z,9.30
2023-01-03T19:04:03.413Z,9.20
2023-01-03T19:06:31.625Z,9.30
2023-01-03T19:09:02.407Z,9.30
2023-01-03T19:11:38.156Z,9.30
2023-01-03T19:14:05.287Z,9.30
2023-01-03T19:16:34.793Z,9.40
2023-01-03T19:19:03.204Z,9.40
2023-01-03T19:21:56.202Z,9.30
2023-01-03T19:24:25.340Z,9.40
2023-01-03T19:26:58.180Z,9.30
2023-01-03T19:29:28.474Z,9.30
2023-01-03T19:31:56.947Z,9.30
2023-01-03T19:34:25.771Z,9.30
2023-01-03T19:36:52.933Z,9.30
2023-01-03T19:39:25.320Z,9.30
2023-01-03T19:42:14.846Z,9.30
2023-01-03T19:44:41.970Z,9.30
2023-01-03T19:47:14.457Z,9.30
2023-01-03T19:49:41.887Z,9.40
2023-01-03T19:52:08.607Z,9.30
2023-01-03T19:54:35.334Z,9.30
2023-01-03T19:57:01.988Z,9.30
2023-01-03T19:59:34.865Z,9.30
2023-01-03T20:02:24.646Z,9.30
2023-01-03T20:04:52.199Z,9.30
2023-01-03T20:07:18.904Z,9.20
2023-01-03T20:09:45.491Z,9.20
2023-01-03T20:12:21.390Z,9.20
2023-01-03T20:14:52.028Z,9.20
2023-01-03T20:17:23.755Z,9.20
2023-01-03T20:19:51.458Z,9.20
2023-01-03T20:22:52.984Z,9.10
2023-01-03T20:25:27.685Z,9.20
2023-01-03T20:27:55.755Z,9.20
2023-01-03T20:30:26.379Z,9.20
2023-01-03T20:32:53.140Z,9.30
2023-01-03T20:38:11.421Z,9.20
2023-01-03T20:40:38.114Z,9.20
2023-01-03T20:43:05.422Z,9.20
2023-01-03T20:45:32.822Z,9.20
2023-01-03T20:47:59.784Z,9.20
2023-01-03T20:50:28.098Z,9.20
2023-01-03T20:52:55.986Z,9.20
2023-01-03T20:55:24.137Z,9.20
2023-01-03T20:57:51.172Z,9.10
2023-01-03T21:00:28.681Z,9.10
2023-01-03T21:02:55.480Z,9.10
2023-01-03T21:05:22.864Z,9.20
2023-01-03T21:08:08.530Z,9.10
2023-01-03T21:10:41.025Z,9.10
2023-01-03T21:13:09.089Z,9.10
2023-01-03T21:15:36.021Z,9.10
2023-01-03T21:18:03.838Z,9.10
2023-01-03T21:20:31.826Z,9.00
2023-01-03T21:22:58.896Z,9.10
2023-01-03T21:25:32.692Z,9.00
2023-01-03T21:28:00.334Z,9.00
2023-01-03T21:30:29.488Z,9.00
2023-01-03T21:32:56.464Z,9.00
2023-01-03T21:35:24.296Z,9.00
2023-01-03T21:37:52.900Z,9.00
2023-01-03T21:40:29.954Z,9.00
2023-01-03T21:43:04.246Z,9.00
2023-01-03T21:45:52.853Z,9.10
2023-01-03T21:48:19.509Z,9.10
2023-01-03T21:50:49.714Z,9.00
2023-01-03T21:53:21.819Z,9.00
2023-01-03T21:55:49.206Z,9.00
2023-01-03T21:58:17.460Z,9.00
2023-01-03T22:00:44.529Z,8.90
2023-01-03T22:03:30.867Z,8.90
2023-01-03T22:06:13.785Z,8.80
2023-01-03T22:08:41.064Z,8.80
2023-01-03T22:11:08.124Z,8.80
2023-01-03T22:13:36.059Z,8.80
2023-01-03T22:16:04.804Z,8.80
2023-01-03T22:18:31.643Z,8.70
2023-01-03T22:21:11.304Z,8.80
2023-01-03T22:23:39.948Z,8.80
2023-01-03T22:26:14.223Z,8.80
2023-01-03T22:28:43.679Z,8.70
2023-01-03T22:31:13.330Z,8.70
2023-01-03T22:33:40.041Z,8.60
2023-01-03T22:36:08.387Z,8.60
2023-01-03T22:38:36.297Z,8.70
2023-01-03T22:41:11.054Z,8.70
2023-01-03T22:43:37.711Z,8.70
2023-01-03T22:46:17.517Z,8.70
2023-01-03T22:48:44.715Z,8.70
2023-01-03T22:51:14.398Z,8.80
2023-01-03T22:53:42.884Z,8.80
2023-01-03T22:56:12.338Z,8.80
2023-01-03T22:58:39.025Z,8.80
2023-01-03T23:01:12.787Z,8.80
2023-01-03T23:03:39.891Z,8.80
2023-01-03T23:06:12.856Z,8.80
2023-01-03T23:08:40.280Z,8.80
2023-01-03T23:11:35.962Z,8.80
2023-01-03T23:14:05.999Z,8.80
2023-01-03T23:16:32.829Z,8.80
2023-01-03T23:19:02.203Z,8.80
2023-01-03T23:21:28.882Z,8.80
2023-01-03T23:23:55.741Z,8.70
2023-01-03T23:26:22.668Z,8.70
2023-01-03T23:28:49.420Z,8.80
2023-01-03T23:31:16.070Z,8.80
2023-01-03T23:33:42.684Z,8.80
2023-01-03T23:36:11.151Z,8.80
2023-01-03T23:38:37.735Z,8.80
2023-01-03T23:41:06.463Z,8.80
2023-01-03T23:43:33.931Z,8.80
2023-01-03T23:46:00.719Z,8.80
2023-01-03T23:48:27.597Z,8.80
2023-01-03T23:50:54.507Z,8.80
2023-01-03T23:53:21.553Z,8.80
2023-01-03T23:55:48.215Z,8.80
2023-01-03T23:58:14.893Z,8.80
